Jornada Exp Range

Sept. 17, 2019, 10 a.m.

  • imperial
Air Temperature RH Wind Speed Wind Direction Precipitation Solar Radiation Soil Temperature
Date Time Max Min Mean Max Min Max Mean Mean Total Total
US/Mountain F F F % % MPH MPH deg. in. MJ/m^2 F
2019-09-16 10:00 71.78 68.36 69.98 79.0 69.0 3.6 1.01 265.0 0.0 -0.36 94.28
2019-09-16 11:00 76.28 71.78 73.04 69.0 60.0 7.09 3.49 189.0 0.0 -0.36 94.28
2019-09-16 12:00 77.18 75.02 76.46 60.0 52.0 7.49 3.2 201.0 0.0 -0.36 94.28
2019-09-16 13:00 81.14 76.82 77.72 53.0 45.0 12.5 4.5 228.0 0.0 -0.36 -147.82
2019-09-16 14:00 81.68 79.16 80.42 46.0 43.0 12.59 5.7 196.0 0.0 -0.36 -147.82
2019-09-16 15:00 82.94 80.6 81.68 44.0 41.0 15.59 7.4 192.0 0.0 -0.36 94.28
2019-09-16 16:00 -147.82 -147.82 -147.82 -99.9 -99.9 -99.9 -99.9 -99.9 -99.9 -0.36 94.28
2019-09-16 17:00 83.66 82.22 82.94 40.0 38.0 14.0 6.71 196.0 0.0 -0.36 -147.82
2019-09-16 18:00 83.12 82.58 82.94 39.0 38.0 13.4 5.91 200.0 0.0 -0.36 -147.82
2019-09-16 19:00 82.94 80.78 82.22 43.0 39.0 10.89 5.59 201.0 0.0 -0.36 -147.82
2019-09-16 20:00 80.78 77.0 79.34 52.0 43.0 7.49 5.3 186.0 0.0 -0.36 -147.82
2019-09-16 21:00 77.0 73.22 75.38 60.0 52.0 4.81 2.8 159.0 0.0 -0.36 94.28
2019-09-16 22:00 73.94 70.52 72.86 69.0 59.0 4.5 2.39 135.0 0.0 -0.36 94.28
2019-09-16 23:00 71.6 70.52 70.88 69.0 67.0 4.09 2.19 103.0 0.0 -0.36 94.28
2019-09-17 00:00 70.52 68.0 68.9 75.0 69.0 5.19 2.71 83.0 0.0 -0.36 94.28
2019-09-17 01:00 68.36 67.28 67.82 78.0 74.0 5.5 3.2 93.0 0.0 -0.36 94.28
2019-09-17 02:00 68.54 66.74 67.82 83.0 76.0 7.4 2.39 354.0 0.0 -0.36 94.28
2019-09-17 03:00 67.1 64.76 66.02 87.0 83.0 4.3 1.79 25.0 0.0 -0.36 -147.82
2019-09-17 04:00 64.76 63.32 63.86 89.0 87.0 3.4 1.5 236.0 0.0 -0.36 94.28
2019-09-17 05:00 63.68 62.24 63.14 90.0 88.0 5.5 1.99 306.0 0.0 -0.36 94.28
2019-09-17 06:00 62.96 62.24 62.6 91.0 89.0 3.6 1.3 328.0 0.0 -0.36 94.28
2019-09-17 07:00 62.24 60.8 61.34 93.0 91.0 3.69 1.99 100.0 0.0 -0.36 94.28
2019-09-17 08:00 67.1 61.7 63.68 93.0 78.0 3.11 1.21 264.0 0.0 -0.36 94.28
2019-09-17 09:00 69.98 67.1 68.0 78.0 70.0 5.19 2.51 303.0 0.0 -0.36 94.28
2019-09-17 10:00 74.3 69.98 71.96 70.0 59.0 6.0 2.39 275.0 0.0 -0.36 94.28

Data is presented as is, with no certification of correctness. DO NOT USE IN LEGAL PROCEEDINGS.